Time;durP1;ratioP1;P1;durP2;ratioP2;P2;SDS_P1;SDS_P2;PMS_P1;PMS_P2;Temp;Humidity;BMP_temperature;BMP_pressure;BME280_temperature;BME280_humidity;BME280_pressure;Samples;Min_cycle;Max_cycle;Signal;HPM_P1;HPM_P2
2024/04/16 12:59:03;;;;;;;0.40;0.10;;;11.10;99.90;;;;;;6614154;21;19993;-87
2024/04/16 14:01:25;;;;;;;1.17;0.20;;;10.40;99.90;;;;;;6540336;21;20532;-86
2024/04/16 14:05:04;;;;;;;1.15;0.20;;;10.30;99.90;;;;;;6573839;21;20007;-86
2024/04/16 14:09:00;;;;;;;1.63;0.30;;;10.40;99.90;;;;;;6548589;21;20784;-86
2024/04/16 14:12:28;;;;;;;3.55;0.10;;;10.40;99.90;;;;;;6575832;21;20004;-86
2024/04/16 14:15:59;;;;;;;3.03;0.30;;;10.40;99.90;;;;;;6569882;21;20003;-87
2024/04/16 14:23:11;;;;;;;1.25;0.32;;;10.30;99.90;;;;;;6349089;22;20006;-86
2024/04/16 14:30:25;;;;;;;3.08;0.30;;;10.30;99.90;;;;;;6037847;23;20436;-86
2024/04/16 15:30:02;;;;;;;5.90;2.05;;;10.50;99.90;;;;;;6573444;21;20370;-85
2024/04/16 15:48:39;;;;;;;5.45;1.58;;;11.00;99.90;;;;;;6574750;21;20025;-84
2024/04/16 15:51:48;;;;;;;5.03;1.50;;;11.00;99.90;;;;;;6571912;21;20009;-85
2024/04/16 15:54:56;;;;;;;4.70;1.58;;;10.90;99.90;;;;;;6567851;21;20004;-86
2024/04/16 15:58:18;;;;;;;5.30;1.48;;;10.80;99.90;;;;;;6519958;21;20088;-86
2024/04/16 16:01:08;;;;;;;3.92;1.50;;;10.70;99.90;;;;;;6482337;21;20058;-86
2024/04/16 16:04:38;;;;;;;4.18;1.65;;;10.30;99.90;;;;;;6569220;21;20420;-87
2024/04/16 16:11:58;;;;;;;7.40;1.80;;;10.90;99.90;;;;;;6234110;22;20072;-86
2024/04/16 16:15:36;;;;;;;4.15;1.00;;;11.90;99.90;;;;;;6236019;22;20019;-87
2024/04/16 16:18:48;;;;;;;5.00;1.02;;;11.10;99.90;;;;;;6402650;22;19998;-85
2024/04/16 16:21:30;;;;;;;4.78;0.90;;;11.10;99.90;;;;;;6375923;22;20051;-89
2024/04/16 16:23:57;;;;;;;9.73;1.45;;;11.20;99.90;;;;;;6336846;22;20009;-86
2024/04/16 16:26:23;;;;;;;6.43;1.17;;;11.20;99.90;;;;;;6568636;21;20411;-87
2024/04/16 16:29:19;;;;;;;5.10;1.40;;;11.20;99.90;;;;;;6574949;21;20077;-87
2024/04/16 16:32:00;;;;;;;7.78;1.17;;;11.10;99.90;;;;;;6574669;21;19997;-86
2024/04/16 16:34:38;;;;;;;5.68;0.85;;;10.90;99.90;;;;;;6530762;21;20321;-85
2024/04/16 16:37:04;;;;;;;5.70;1.17;;;10.90;99.90;;;;;;6574937;21;20005;-85
2024/04/16 16:39:31;;;;;;;7.40;1.08;;;11.10;99.90;;;;;;6573828;21;20019;-84
2024/04/16 16:41:57;;;;;;;5.13;1.02;;;11.00;99.90;;;;;;6575699;21;20004;-84
2024/04/16 16:44:22;;;;;;;5.22;0.88;;;10.90;99.90;;;;;;6575248;21;20041;-84
2024/04/16 16:46:48;;;;;;;4.90;0.63;;;10.80;99.90;;;;;;6575764;21;20004;-85
2024/04/16 16:49:14;;;;;;;6.80;1.80;;;10.60;99.90;;;;;;6575185;21;20008;-85
2024/04/16 16:51:40;;;;;;;7.20;1.58;;;10.80;99.90;;;;;;6576416;21;20028;-86
2024/04/16 16:54:05;;;;;;;7.38;1.05;;;10.50;99.90;;;;;;6577360;21;20008;-84
2024/04/16 16:56:31;;;;;;;9.05;1.45;;;10.50;99.90;;;;;;6576821;21;20070;-85
2024/04/16 16:58:57;;;;;;;12.05;2.03;;;10.40;99.90;;;;;;6575927;21;20004;-85
2024/04/16 17:01:24;;;;;;;7.80;1.60;;;10.40;99.90;;;;;;6578308;21;20012;-85
2024/04/16 17:03:50;;;;;;;9.15;1.17;;;10.30;99.90;;;;;;6575182;21;20001;-86
2024/04/16 17:06:16;;;;;;;6.82;0.98;;;10.30;99.90;;;;;;6577571;21;20012;-85
2024/04/16 17:08:41;;;;;;;8.68;1.35;;;10.80;99.90;;;;;;6577833;21;20316;-87
2024/04/16 17:11:09;;;;;;;8.32;1.70;;;10.50;99.90;;;;;;6575384;21;20005;-86
2024/04/16 17:13:35;;;;;;;7.07;1.10;;;10.30;99.90;;;;;;6575449;21;20011;-86
2024/04/16 17:16:02;;;;;;;9.15;1.40;;;10.80;99.90;;;;;;6574595;21;20004;-85
2024/04/16 17:18:28;;;;;;;8.48;1.45;;;10.70;99.90;;;;;;6577110;21;20012;-86
2024/04/16 17:20:55;;;;;;;14.65;3.10;;;10.30;99.90;;;;;;6577158;21;20606;-85
2024/04/16 17:23:21;;;;;;;7.82;0.90;;;9.90;99.90;;;;;;6575181;21;20008;-86
2024/04/16 17:25:46;;;;;;;7.72;1.55;;;10.50;99.90;;;;;;6575598;21;20039;-85
2024/04/16 17:28:12;;;;;;;9.80;1.85;;;10.20;99.90;;;;;;6575598;21;20004;-85
2024/04/16 17:30:38;;;;;;;8.73;1.50;;;10.70;99.90;;;;;;6575657;21;20008;-86
2024/04/16 17:33:04;;;;;;;9.75;2.92;;;10.70;99.90;;;;;;6577445;21;20001;-85
2024/04/16 17:35:31;;;;;;;8.90;1.67;;;10.10;99.90;;;;;;6575385;21;20007;-85
2024/04/16 17:37:57;;;;;;;11.23;1.50;;;10.40;99.90;;;;;;6577071;21;20000;-86
2024/04/16 17:40:23;;;;;;;8.55;1.10;;;10.80;99.90;;;;;;6574483;21;20018;-85
2024/04/16 17:42:49;;;;;;;10.52;2.47;;;10.00;99.90;;;;;;6574041;21;20001;-84
2024/04/16 17:45:15;;;;;;;6.88;1.30;;;9.90;99.90;;;;;;6571172;21;20087;-85
2024/04/16 17:47:41;;;;;;;7.75;1.30;;;9.90;99.90;;;;;;6574788;21;20016;-84
2024/04/16 17:50:08;;;;;;;6.90;1.33;;;9.80;99.90;;;;;;6574610;21;20431;-85
2024/04/16 17:52:34;;;;;;;10.20;1.75;;;9.80;99.90;;;;;;6575272;21;20710;-86
2024/04/16 17:55:00;;;;;;;10.88;1.88;;;10.10;99.90;;;;;;6577750;21;20008;-86
2024/04/16 17:57:25;;;;;;;10.27;1.80;;;9.70;99.90;;;;;;6576820;21;20012;-86
2024/04/16 17:59:51;;;;;;;10.60;2.33;;;10.00;99.90;;;;;;6573487;21;20078;-84
2024/04/16 18:02:17;;;;;;;7.32;1.70;;;9.60;99.90;;;;;;6575047;21;20316;-85
2024/04/16 18:04:43;;;;;;;8.65;1.35;;;9.70;99.90;;;;;;6574045;21;20000;-86
2024/04/16 18:07:09;;;;;;;10.02;1.80;;;9.60;99.90;;;;;;6576324;21;20018;-85
2024/04/16 18:09:37;;;;;;;12.13;2.78;;;9.50;99.90;;;;;;6575746;21;20004;-84
2024/04/16 18:12:03;;;;;;;10.45;1.88;;;9.40;99.90;;;;;;6575932;21;20000;-84
2024/04/16 18:14:29;;;;;;;9.93;1.90;;;9.40;99.90;;;;;;6575423;21;20015;-85
2024/04/16 18:16:55;;;;;;;10.50;2.33;;;9.70;99.90;;;;;;6576135;21;20016;-84
2024/04/16 18:19:21;;;;;;;13.93;2.17;;;9.30;99.90;;;;;;6575327;21;20004;-84
2024/04/16 18:21:46;;;;;;;12.02;1.98;;;9.20;99.90;;;;;;6574254;21;20709;-85
2024/04/16 18:24:12;;;;;;;13.23;2.72;;;9.10;99.90;;;;;;6575484;21;20016;-85
2024/04/16 18:26:38;;;;;;;14.10;2.38;;;9.00;99.90;;;;;;6576292;21;20012;-84
2024/04/16 18:29:04;;;;;;;10.13;2.45;;;9.10;99.90;;;;;;6575511;21;20079;-85
2024/04/16 18:31:29;;;;;;;11.45;2.40;;;9.00;99.90;;;;;;6573479;21;20004;-86
2024/04/16 18:33:55;;;;;;;15.82;3.38;;;8.90;99.90;;;;;;6571736;21;20080;-85
2024/04/16 18:36:21;;;;;;;10.35;2.00;;;9.00;99.90;;;;;;6573405;21;20015;-85
2024/04/16 18:38:47;;;;;;;10.05;2.25;;;8.90;99.90;;;;;;6574497;21;20019;-86
2024/04/16 18:41:13;;;;;;;9.45;2.45;;;9.90;99.90;;;;;;6574795;21;20014;-84
2024/04/16 18:43:39;;;;;;;25.42;3.45;;;8.80;99.90;;;;;;6575202;21;20613;-85
2024/04/16 18:46:05;;;;;;;13.15;2.63;;;8.70;99.90;;;;;;6575640;21;20017;-85
2024/04/16 18:48:31;;;;;;;16.20;2.35;;;8.60;99.90;;;;;;6574719;21;20005;-85
2024/04/16 18:50:57;;;;;;;17.67;2.85;;;8.60;99.90;;;;;;6572350;21;20005;-85
2024/04/16 18:53:24;;;;;;;14.30;2.20;;;8.60;99.90;;;;;;6575664;21;20005;-84
2024/04/16 18:55:50;;;;;;;12.93;2.28;;;9.20;99.90;;;;;;6575346;21;20000;-85
2024/04/16 18:58:20;;;;;;;14.52;1.92;;;8.50;99.90;;;;;;6575620;21;20435;-85
2024/04/16 19:00:47;;;;;;;12.00;2.45;;;8.40;99.90;;;;;;6572767;21;20004;-85
2024/04/16 19:03:13;;;;;;;10.90;2.53;;;8.40;99.90;;;;;;6574457;21;20015;-85
2024/04/16 19:05:39;;;;;;;11.00;2.47;;;8.30;99.90;;;;;;6573195;21;19996;-86
2024/04/16 19:08:24;;;;;;;12.48;1.95;;;8.40;99.90;;;;;;6574009;21;20643;-86
